Time;durP1;ratioP1;P1;durP2;ratioP2;P2;SDS_P1;SDS_P2;PMS_P1;PMS_P2;Temp;Humidity;BMP_temperature;BMP_pressure;BME280_temperature;BME280_humidity;BME280_pressure;Samples;Min_cycle;Max_cycle;Signal;HPM_P1;HPM_P2
2021/03/28 00:02:17;;;;;;;2.83;0.90;;;7.10;99.90;;;;;;1877268;75;21073;-75
2021/03/28 00:04:43;;;;;;;4.85;1.12;;;7.00;99.90;;;;;;1878527;75;21168;-75
2021/03/28 00:07:09;;;;;;;10.15;1.15;;;6.90;99.90;;;;;;1877308;75;21073;-75
2021/03/28 00:09:35;;;;;;;2.20;1.10;;;6.90;99.90;;;;;;1879572;75;21077;-76
2021/03/28 00:12:01;;;;;;;1.72;1.22;;;6.80;99.90;;;;;;1877403;75;21039;-75
2021/03/28 00:14:28;;;;;;;3.80;1.30;;;6.80;99.90;;;;;;1877351;75;21073;-75
2021/03/28 00:16:54;;;;;;;6.95;1.50;;;6.90;99.90;;;;;;1877293;75;21136;-76
2021/03/28 00:19:20;;;;;;;3.58;1.07;;;6.80;99.90;;;;;;1877493;75;21069;-75
2021/03/28 00:21:46;;;;;;;4.45;1.00;;;6.80;99.90;;;;;;1876991;75;21200;-74
2021/03/28 00:24:12;;;;;;;3.58;1.10;;;7.00;99.90;;;;;;1877193;75;21077;-76
2021/03/28 00:26:40;;;;;;;4.67;1.35;;;7.00;99.90;;;;;;1877975;75;21109;-76
2021/03/28 00:29:06;;;;;;;3.08;1.15;;;7.10;99.90;;;;;;1878335;75;21045;-76
2021/03/28 00:31:32;;;;;;;3.72;1.25;;;7.00;99.90;;;;;;1877026;75;21233;-76
2021/03/28 00:33:58;;;;;;;3.22;1.25;;;6.90;99.90;;;;;;1878625;75;21147;-76
2021/03/28 00:36:24;;;;;;;3.22;1.15;;;6.80;99.90;;;;;;1877986;74;21220;-75
2021/03/28 00:38:50;;;;;;;3.30;1.20;;;6.60;99.90;;;;;;1877296;75;21078;-75
2021/03/28 00:41:17;;;;;;;3.42;1.10;;;6.50;99.90;;;;;;1876850;75;21085;-76
2021/03/28 00:43:43;;;;;;;1.35;1.10;;;6.50;99.90;;;;;;1879394;75;21487;-75
2021/03/28 00:46:09;;;;;;;2.62;1.30;;;6.50;99.90;;;;;;1877191;75;21493;-76
2021/03/28 00:48:35;;;;;;;4.60;1.40;;;6.50;99.90;;;;;;1878074;75;21599;-76
2021/03/28 00:51:01;;;;;;;3.62;1.20;;;6.40;99.90;;;;;;1876769;75;21081;-75
2021/03/28 00:53:27;;;;;;;3.95;1.22;;;6.40;99.90;;;;;;1878766;75;21078;-75
2021/03/28 00:55:53;;;;;;;2.33;1.05;;;6.50;99.90;;;;;;1876700;75;21054;-75
2021/03/28 00:58:19;;;;;;;2.70;1.17;;;6.40;99.90;;;;;;1877826;75;21133;-76
2021/03/28 01:00:46;;;;;;;3.90;1.25;;;6.40;99.90;;;;;;1878969;75;21155;-75
2021/03/28 01:03:12;;;;;;;3.20;1.20;;;6.30;99.90;;;;;;1880107;75;21077;-75
2021/03/28 01:05:38;;;;;;;5.78;1.32;;;6.30;99.90;;;;;;1878556;75;21116;-75
2021/03/28 01:08:04;;;;;;;7.35;1.27;;;6.20;99.90;;;;;;1878968;75;21082;-76
2021/03/28 01:10:30;;;;;;;3.80;1.15;;;6.20;99.90;;;;;;1878444;75;21042;-76
2021/03/28 01:12:56;;;;;;;6.10;1.55;;;6.30;99.90;;;;;;1878729;75;21081;-75
2021/03/28 01:15:22;;;;;;;2.77;1.17;;;6.20;99.90;;;;;;1876792;75;21077;-75
2021/03/28 01:17:48;;;;;;;2.65;1.12;;;6.30;99.90;;;;;;1877726;75;21159;-76
2021/03/28 01:20:15;;;;;;;3.10;1.40;;;6.20;99.90;;;;;;1878393;75;21081;-75
2021/03/28 01:22:41;;;;;;;5.00;1.42;;;6.20;99.90;;;;;;1876873;75;21490;-75
2021/03/28 01:25:07;;;;;;;2.17;1.00;;;6.10;99.90;;;;;;1878791;75;21525;-75
2021/03/28 01:27:33;;;;;;;4.50;1.10;;;6.10;99.90;;;;;;1877741;75;21481;-76
2021/03/28 01:29:59;;;;;;;2.35;1.17;;;6.20;99.90;;;;;;1878261;75;21503;-75
2021/03/28 01:32:25;;;;;;;3.22;1.25;;;6.20;99.90;;;;;;1877405;75;21136;-75
2021/03/28 01:34:51;;;;;;;1.22;0.88;;;6.10;99.90;;;;;;1878124;75;21513;-75
2021/03/28 01:37:17;;;;;;;2.72;1.10;;;6.10;99.90;;;;;;1877278;75;21094;-75
2021/03/28 01:39:43;;;;;;;6.42;1.62;;;6.00;99.90;;;;;;1878058;75;21080;-75
2021/03/28 01:42:10;;;;;;;1.22;0.85;;;6.10;99.90;;;;;;1853178;75;21127;-75
2021/03/28 01:44:36;;;;;;;9.45;1.10;;;6.00;99.90;;;;;;1878853;75;21143;-75
2021/03/28 01:47:02;;;;;;;2.25;1.00;;;5.90;99.90;;;;;;1878136;75;21073;-75
2021/03/28 01:49:28;;;;;;;2.50;1.00;;;5.90;99.90;;;;;;1877228;75;21530;-76
2021/03/28 01:51:54;;;;;;;3.25;1.40;;;5.90;99.90;;;;;;1878207;75;21563;-75
2021/03/28 01:54:20;;;;;;;3.60;1.35;;;5.70;99.90;;;;;;1877623;75;21493;-75
2021/03/28 01:56:47;;;;;;;4.50;1.40;;;5.60;99.90;;;;;;1877262;75;21143;-75
2021/03/28 01:59:13;;;;;;;2.90;1.45;;;5.50;99.90;;;;;;1878857;75;21081;-75
2021/03/28 02:01:39;;;;;;;3.17;1.25;;;5.40;99.90;;;;;;1878596;75;21042;-75
2021/03/28 02:04:06;;;;;;;3.02;1.12;;;5.40;99.90;;;;;;1879864;75;21051;-75
2021/03/28 02:06:32;;;;;;;3.27;1.30;;;5.30;99.90;;;;;;1877608;75;21089;-75
2021/03/28 02:08:58;;;;;;;2.47;1.12;;;5.20;99.90;;;;;;1877462;75;21147;-75
2021/03/28 02:11:25;;;;;;;4.05;1.30;;;5.20;99.90;;;;;;1877991;75;21081;-75
2021/03/28 02:13:51;;;;;;;0.98;0.88;;;5.20;99.90;;;;;;1878815;75;21128;-76
2021/03/28 02:16:17;;;;;;;2.37;1.27;;;5.10;99.90;;;;;;1878163;75;21050;-75
2021/03/28 02:18:44;;;;;;;2.20;1.17;;;4.90;99.90;;;;;;1878697;75;21139;-75
2021/03/28 02:21:10;;;;;;;3.58;1.62;;;4.90;99.90;;;;;;1877673;75;21093;-75
2021/03/28 02:23:36;;;;;;;4.12;1.47;;;5.00;99.90;;;;;;1877729;75;21502;-75
2021/03/28 02:26:02;;;;;;;4.17;1.45;;;5.00;99.90;;;;;;1876675;75;21588;-75
2021/03/28 02:28:28;;;;;;;3.95;1.12;;;4.80;99.90;;;;;;1878142;75;21710;-75
2021/03/28 02:30:54;;;;;;;4.83;1.65;;;4.90;99.90;;;;;;1877169;75;21135;-75
2021/03/28 02:33:20;;;;;;;7.35;1.60;;;4.90;99.90;;;;;;1878841;75;21046;-75
2021/03/28 02:35:46;;;;;;;3.80;1.10;;;4.80;99.90;;;;;;1876640;75;21078;-75
2021/03/28 02:38:12;;;;;;;3.33;1.17;;;4.80;99.90;;;;;;1877316;75;21081;-75
2021/03/28 02:40:39;;;;;;;3.42;1.42;;;4.80;99.90;;;;;;1879525;74;21073;-75
2021/03/28 02:43:05;;;;;;;8.78;1.47;;;4.80;99.90;;;;;;1878323;75;21077;-75
2021/03/28 02:45:31;;;;;;;2.12;0.95;;;4.80;99.90;;;;;;1877697;75;21222;-75
2021/03/28 02:47:57;;;;;;;1.62;1.10;;;4.90;99.90;;;;;;1878564;74;21131;-75
2021/03/28 02:50:23;;;;;;;2.35;1.00;;;4.70;99.90;;;;;;1878522;75;21090;-75
2021/03/28 02:52:49;;;;;;;6.30;1.30;;;4.70;99.90;;;;;;1878857;75;21081;-75
2021/03/28 02:55:15;;;;;;;6.45;1.07;;;4.70;99.90;;;;;;1876717;75;21042;-75
2021/03/28 02:57:41;;;;;;;3.15;1.37;;;4.70;99.90;;;;;;1877233;74;21101;-75
2021/03/28 03:00:08;;;;;;;3.90;1.35;;;4.70;99.90;;;;;;1876741;75;21069;-75
2021/03/28 03:02:34;;;;;;;3.85;1.35;;;4.70;99.90;;;;;;1878218;75;21163;-75
2021/03/28 03:05:00;;;;;;;4.72;1.10;;;4.70;99.90;;;;;;1877194;75;21135;-75
2021/03/28 03:07:26;;;;;;;6.75;1.95;;;4.70;99.90;;;;;;1877585;75;21069;-75
2021/03/28 03:09:54;;;;;;;1.45;1.17;;;4.70;99.90;;;;;;1879382;75;21093;-75
2021/03/28 03:12:20;;;;;;;4.42;1.42;;;4.80;99.90;;;;;;1876819;75;21144;-75
2021/03/28 03:14:46;;;;;;;3.00;1.22;;;4.70;99.90;;;;;;1879994;75;21160;-75
2021/03/28 03:17:12;;;;;;;3.90;1.47;;;4.60;99.90;;;;;;1880552;75;21143;-75
2021/03/28 03:19:38;;;;;;;2.42;1.40;;;4.70;99.90;;;;;;1877299;75;21160;-75
2021/03/28 03:22:04;;;;;;;3.42;1.12;;;4.60;99.90;;;;;;1878518;75;21145;-75
2021/03/28 03:24:30;;;;;;;3.08;1.10;;;4.60;99.90;;;;;;1877325;75;21069;-75
2021/03/28 03:26:57;;;;;;;1.75;1.00;;;4.70;99.90;;;;;;1878689;75;21082;-75
2021/03/28 03:29:23;;;;;;;2.12;0.98;;;4.70;99.90;;;;;;1877213;75;21089;-75
2021/03/28 03:31:49;;;;;;;5.03;1.12;;;4.70;99.90;;;;;;1878305;75;21486;-75
2021/03/28 03:34:15;;;;;;;3.75;1.17;;;4.70;99.90;;;;;;1877262;75;21504;-75
2021/03/28 03:36:41;;;;;;;4.42;1.67;;;4.60;99.90;;;;;;1878699;75;21506;-75
2021/03/28 03:39:07;;;;;;;2.15;1.10;;;4.50;99.90;;;;;;1880303;75;21077;-75
2021/03/28 03:41:33;;;;;;;1.67;1.17;;;4.60;99.90;;;;;;1877823;75;21078;-75
2021/03/28 03:43:59;;;;;;;8.48;1.27;;;4.50;99.90;;;;;;1878259;75;21073;-75
2021/03/28 03:46:28;;;;;;;2.75;1.15;;;4.30;99.90;;;;;;1877410;75;21075;-75
2021/03/28 03:48:53;;;;;;;5.25;1.40;;;4.40;99.90;;;;;;1879657;75;21536;-75
2021/03/28 03:51:19;;;;;;;3.77;1.32;;;4.30;99.90;;;;;;1877794;75;21039;-76
2021/03/28 03:53:46;;;;;;;3.37;1.47;;;4.30;99.90;;;;;;1877712;75;21085;-76
2021/03/28 03:56:12;;;;;;;11.85;1.60;;;4.30;99.90;;;;;;1878448;75;21125;-76
2021/03/28 03:58:38;;;;;;;5.08;1.60;;;4.20;99.90;;;;;;1877593;75;21090;-75
2021/03/28 04:01:04;;;;;;;7.12;1.47;;;4.30;99.90;;;;;;1878681;75;21069;-76
2021/03/28 04:03:30;;;;;;;2.80;1.20;;;4.30;99.90;;;;;;1876741;75;21164;-75
2021/03/28 04:05:56;;;;;;;3.27;1.52;;;4.30;99.90;;;;;;1877594;75;21082;-75
2021/03/28 04:08:22;;;;;;;3.02;1.60;;;4.30;99.90;;;;;;1880233;75;21563;-76
2021/03/28 04:10:48;;;;;;;2.80;1.52;;;4.10;99.90;;;;;;1878317;75;21450;-75
2021/03/28 04:13:15;;;;;;;7.55;1.70;;;4.00;99.90;;;;;;1877639;75;21442;-75
2021/03/28 04:15:41;;;;;;;4.05;1.30;;;4.00;99.90;;;;;;1878323;75;21151;-75
2021/03/28 04:18:07;;;;;;;3.15;1.50;;;4.00;99.90;;;;;;1876953;75;21144;-76
2021/03/28 04:20:33;;;;;;;3.50;1.77;;;4.00;99.90;;;;;;1882716;75;21073;-75
2021/03/28 04:22:59;;;;;;;4.10;1.47;;;4.00;99.90;;;;;;1877176;75;21079;-76
2021/03/28 04:25:25;;;;;;;2.83;1.35;;;4.00;99.90;;;;;;1879377;75;21085;-75
2021/03/28 04:27:51;;;;;;;1.47;1.20;;;3.80;99.90;;;;;;1876785;75;21271;-76
2021/03/28 04:30:17;;;;;;;1.55;1.00;;;3.80;99.90;;;;;;1877236;75;21553;-76
2021/03/28 04:32:44;;;;;;;6.30;1.52;;;3.70;99.90;;;;;;1878085;75;21485;-76
2021/03/28 04:35:10;;;;;;;2.05;1.20;;;3.70;99.90;;;;;;1876922;75;21427;-75
2021/03/28 04:37:36;;;;;;;2.92;1.30;;;3.50;99.90;;;;;;1877645;75;21140;-76
2021/03/28 04:40:02;;;;;;;1.65;1.12;;;3.40;99.90;;;;;;1877858;75;21139;-76
2021/03/28 04:42:28;;;;;;;3.27;1.77;;;3.50;99.90;;;;;;1877297;75;21147;-75
2021/03/28 04:44:54;;;;;;;2.65;1.20;;;3.40;99.90;;;;;;1879277;75;21073;-75
2021/03/28 04:47:20;;;;;;;4.37;1.27;;;3.40;99.90;;;;;;1878568;75;21143;-76
2021/03/28 04:49:46;;;;;;;3.30;1.50;;;3.30;99.90;;;;;;1877780;75;21073;-77
2021/03/28 04:52:13;;;;;;;3.62;1.47;;;3.20;99.90;;;;;;1877318;75;21089;-76
2021/03/28 04:54:39;;;;;;;3.12;1.05;;;3.10;99.90;;;;;;1877319;75;21077;-74
2021/03/28 04:57:05;;;;;;;2.15;1.10;;;3.10;99.90;;;;;;1878220;75;21081;-75
2021/03/28 04:59:31;;;;;;;1.52;0.93;;;3.20;99.90;;;;;;1879850;75;21085;-75
2021/03/28 05:01:57;;;;;;;2.77;1.27;;;3.20;99.90;;;;;;1876770;75;21151;-75
2021/03/28 05:04:23;;;;;;;1.80;0.88;;;3.00;99.90;;;;;;1877384;75;21078;-76
2021/03/28 05:06:50;;;;;;;2.60;1.30;;;3.10;99.90;;;;;;1877251;75;21066;-75
2021/03/28 05:09:16;;;;;;;1.70;1.15;;;3.00;99.90;;;;;;1877871;75;21058;-75
2021/03/28 05:11:42;;;;;;;2.95;1.25;;;3.00;99.90;;;;;;1878860;75;21140;-75
2021/03/28 05:14:08;;;;;;;3.70;1.50;;;3.00;99.90;;;;;;1877203;75;21505;-75
2021/03/28 05:16:34;;;;;;;4.10;1.42;;;3.10;99.90;;;;;;1878228;75;21497;-75
2021/03/28 05:19:00;;;;;;;6.58;1.57;;;3.00;99.90;;;;;;1877516;75;21458;-76
2021/03/28 05:21:26;;;;;;;1.52;1.35;;;2.90;99.90;;;;;;1879436;75;21131;-75
2021/03/28 05:23:52;;;;;;;2.98;1.50;;;2.90;99.90;;;;;;1877373;75;21198;-76
2021/03/28 05:26:19;;;;;;;6.10;1.65;;;2.90;99.90;;;;;;1877387;75;21144;-76
2021/03/28 05:28:45;;;;;;;7.28;1.55;;;3.00;99.90;;;;;;1879629;75;21081;-75
2021/03/28 05:31:11;;;;;;;4.25;1.45;;;3.00;99.90;;;;;;1878054;75;21073;-76
2021/03/28 05:33:37;;;;;;;1.42;1.12;;;3.00;99.90;;;;;;1877019;75;21081;-75
2021/03/28 05:36:03;;;;;;;9.40;2.80;;;3.10;99.90;;;;;;1877487;75;21066;-76
2021/03/28 05:38:29;;;;;;;5.03;2.02;;;3.00;99.90;;;;;;1877277;75;21050;-76
2021/03/28 05:40:55;;;;;;;3.40;1.70;;;3.00;99.90;;;;;;1877714;75;21069;-76
2021/03/28 05:43:21;;;;;;;4.60;2.10;;;3.00;99.90;;;;;;1877544;75;21082;-75
2021/03/28 05:45:48;;;;;;;9.48;2.15;;;3.00;99.90;;;;;;1877867;75;21077;-75
2021/03/28 05:48:14;;;;;;;2.60;1.75;;;3.10;99.90;;;;;;1877754;75;21489;-76
2021/03/28 05:50:40;;;;;;;7.08;2.27;;;3.20;99.90;;;;;;1876905;75;21545;-75
2021/03/28 05:53:06;;;;;;;6.33;1.70;;;3.20;99.90;;;;;;1879078;75;21085;-76
2021/03/28 05:55:32;;;;;;;2.45;1.52;;;3.20;99.90;;;;;;1877593;75;21200;-75
2021/03/28 05:57:58;;;;;;;3.85;1.75;;;3.20;99.90;;;;;;1879859;75;21117;-76
2021/03/28 06:00:24;;;;;;;3.47;1.50;;;3.20;99.90;;;;;;1880752;75;21047;-76
2021/03/28 06:02:50;;;;;;;2.70;1.50;;;3.30;99.90;;;;;;1878203;75;21065;-77
2021/03/28 06:05:17;;;;;;;2.95;1.80;;;3.30;99.90;;;;;;1879994;75;21081;-76
2021/03/28 06:07:43;;;;;;;5.30;1.22;;;3.30;99.90;;;;;;1877796;75;21086;-75
2021/03/28 06:10:09;;;;;;;4.47;1.70;;;3.20;99.90;;;;;;1878458;75;21555;-79
2021/03/28 06:12:35;;;;;;;7.00;2.20;;;3.30;99.90;;;;;;1878380;75;21194;-75
2021/03/28 06:15:03;;;;;;;2.52;1.65;;;3.30;99.90;;;;;;1877150;75;21151;-76
2021/03/28 06:17:29;;;;;;;4.17;1.98;;;3.30;99.90;;;;;;1877605;75;21482;-75
2021/03/28 06:19:55;;;;;;;10.28;2.20;;;3.30;99.90;;;;;;1877330;75;21081;-75
2021/03/28 06:22:21;;;;;;;4.17;1.67;;;3.30;99.90;;;;;;1877110;75;21042;-75
2021/03/28 06:24:47;;;;;;;1.57;1.45;;;3.30;99.90;;;;;;1877766;75;21077;-77
2021/03/28 06:27:15;;;;;;;5.60;1.95;;;3.30;99.90;;;;;;1877151;75;21069;-75
2021/03/28 06:29:41;;;;;;;3.80;1.92;;;3.40;99.90;;;;;;1879304;74;21391;-75
2021/03/28 06:32:07;;;;;;;2.52;1.57;;;3.40;99.90;;;;;;1877336;75;21136;-75
2021/03/28 06:34:33;;;;;;;3.33;1.72;;;3.50;99.90;;;;;;1879675;75;21155;-75
2021/03/28 06:36:59;;;;;;;7.47;1.70;;;3.60;99.90;;;;;;1878147;74;21136;-75
2021/03/28 06:39:26;;;;;;;4.10;2.60;;;3.70;99.90;;;;;;1879015;75;21050;-75
2021/03/28 06:41:52;;;;;;;2.40;1.50;;;3.90;99.90;;;;;;1876878;75;21069;-75
2021/03/28 06:44:18;;;;;;;10.65;1.80;;;3.90;99.90;;;;;;1878094;75;21135;-76
2021/03/28 06:46:44;;;;;;;3.25;1.80;;;4.10;99.90;;;;;;1877054;75;21160;-75
2021/03/28 06:49:13;;;;;;;4.17;1.92;;;4.30;99.90;;;;;;1878290;75;21047;-76
2021/03/28 06:51:39;;;;;;;2.70;1.30;;;4.40;99.90;;;;;;1877081;75;21552;-76
2021/03/28 06:54:05;;;;;;;1.50;1.40;;;4.60;99.90;;;;;;1877197;75;21533;-76
2021/03/28 06:56:31;;;;;;;4.35;1.90;;;4.70;99.90;;;;;;1877682;75;21595;-76
2021/03/28 06:58:58;;;;;;;2.98;2.00;;;5.00;99.90;;;;;;1877767;75;21073;-76
2021/03/28 07:01:24;;;;;;;3.62;1.65;;;5.00;99.90;;;;;;1877745;75;21066;-76
2021/03/28 07:03:50;;;;;;;5.67;2.00;;;5.00;99.90;;;;;;1877741;75;21077;-76
2021/03/28 07:06:16;;;;;;;14.13;1.87;;;5.10;99.90;;;;;;1878886;74;21069;-76
2021/03/28 07:08:42;;;;;;;5.30;1.72;;;5.30;99.90;;;;;;1880257;75;21129;-78
2021/03/28 07:11:08;;;;;;;2.77;1.50;;;5.40;99.90;;;;;;1877285;75;21046;-78
2021/03/28 07:13:34;;;;;;;2.52;1.22;;;5.50;99.90;;;;;;1878710;75;21074;-78
2021/03/28 07:16:01;;;;;;;3.87;1.52;;;5.90;99.90;;;;;;1876857;75;21097;-77
2021/03/28 07:18:27;;;;;;;2.85;1.32;;;6.10;99.90;;;;;;1877375;75;21501;-77
2021/03/28 07:20:53;;;;;;;4.47;1.52;;;6.20;99.90;;;;;;1879821;75;21591;-77
2021/03/28 07:23:19;;;;;;;4.58;1.40;;;6.40;99.90;;;;;;1880267;75;21489;-77
2021/03/28 07:25:45;;;;;;;4.80;1.60;;;6.50;99.90;;;;;;1876794;75;21074;-77
2021/03/28 07:28:11;;;;;;;2.77;1.30;;;6.50;99.90;;;;;;1877253;75;21050;-77
2021/03/28 07:30:37;;;;;;;3.62;1.62;;;6.60;99.90;;;;;;1876814;75;21136;-77
2021/03/28 07:33:03;;;;;;;2.62;1.37;;;6.70;99.90;;;;;;1877673;75;21124;-76
2021/03/28 07:35:29;;;;;;;3.30;1.20;;;6.80;99.90;;;;;;1877363;75;21128;-77
2021/03/28 07:37:56;;;;;;;2.60;1.35;;;6.90;99.90;;;;;;1877217;75;21081;-77
2021/03/28 07:40:22;;;;;;;3.17;1.20;;;7.10;99.90;;;;;;1877157;75;21074;-75
2021/03/28 07:42:48;;;;;;;3.95;1.45;;;7.10;99.90;;;;;;1876863;75;21082;-78
2021/03/28 07:45:14;;;;;;;5.47;1.67;;;7.30;99.90;;;;;;1878094;75;21450;-77
2021/03/28 07:47:40;;;;;;;3.00;1.55;;;7.30;99.90;;;;;;1876960;75;21067;-76
2021/03/28 07:50:06;;;;;;;3.17;1.20;;;7.30;99.90;;;;;;1877829;75;21139;-76
2021/03/28 07:52:33;;;;;;;2.47;1.25;;;7.40;99.90;;;;;;1879879;75;21131;-76
2021/03/28 07:54:59;;;;;;;5.45;1.62;;;7.70;99.90;;;;;;1879282;75;21200;-76
2021/03/28 07:57:26;;;;;;;5.85;2.15;;;7.70;99.90;;;;;;1877783;75;21082;-76
2021/03/28 07:59:52;;;;;;;3.25;1.47;;;7.80;99.90;;;;;;1879621;75;21073;-76
2021/03/28 08:02:18;;;;;;;5.70;2.00;;;8.10;99.90;;;;;;1877954;75;21069;-77
2021/03/28 08:04:44;;;;;;;4.90;1.52;;;8.20;99.90;;;;;;1877365;75;21142;-77
2021/03/28 08:07:12;;;;;;;2.60;1.50;;;8.20;99.90;;;;;;1877816;75;21074;-76
2021/03/28 08:09:38;;;;;;;2.90;1.55;;;8.30;99.90;;;;;;1879551;75;21081;-76
2021/03/28 08:12:04;;;;;;;5.95;1.27;;;8.60;99.90;;;;;;1878167;75;21078;-78
2021/03/28 08:14:30;;;;;;;5.97;1.57;;;8.90;99.90;;;;;;1878170;75;21156;-76
2021/03/28 08:16:57;;;;;;;4.92;1.70;;;8.90;99.90;;;;;;1876874;75;21078;-77
2021/03/28 08:19:23;;;;;;;4.10;1.42;;;8.90;99.90;;;;;;1878762;75;21164;-78
2021/03/28 08:21:49;;;;;;;5.35;1.62;;;8.80;99.90;;;;;;1878413;75;21046;-75
2021/03/28 08:24:15;;;;;;;5.42;1.42;;;8.80;99.90;;;;;;1876996;75;21089;-76
2021/03/28 08:26:41;;;;;;;3.52;1.50;;;9.10;99.90;;;;;;1877673;75;21481;-73
2021/03/28 08:29:08;;;;;;;5.85;1.57;;;9.20;99.90;;;;;;1877844;75;21474;-71
2021/03/28 08:31:34;;;;;;;3.45;1.42;;;9.00;99.90;;;;;;1878766;75;21623;-72
2021/03/28 08:34:00;;;;;;;2.10;1.02;;;9.00;99.90;;;;;;1877300;75;21140;-73
2021/03/28 08:36:26;;;;;;;7.87;1.70;;;9.50;99.90;;;;;;1877289;75;21242;-73
2021/03/28 08:38:53;;;;;;;3.35;1.55;;;9.60;99.90;;;;;;1878878;75;21077;-74
2021/03/28 08:41:20;;;;;;;3.15;1.25;;;9.70;99.90;;;;;;1878091;75;21148;-71
2021/03/28 08:43:46;;;;;;;7.33;1.82;;;9.60;99.90;;;;;;1879158;75;21489;-73
2021/03/28 08:46:12;;;;;;;5.45;1.92;;;9.90;99.90;;;;;;1879326;75;21485;-73
2021/03/28 08:48:38;;;;;;;3.37;1.67;;;10.10;99.90;;;;;;1878761;75;21498;-71
2021/03/28 08:51:04;;;;;;;3.92;1.15;;;10.90;99.90;;;;;;1878020;76;21050;-70
2021/03/28 08:53:30;;;;;;;3.83;1.40;;;10.70;99.90;;;;;;1877661;75;21081;-71
2021/03/28 08:55:57;;;;;;;2.30;1.35;;;10.90;99.90;;;;;;1878309;75;21203;-70
2021/03/28 08:58:23;;;;;;;2.42;1.07;;;10.80;99.90;;;;;;1877697;75;21124;-70
2021/03/28 09:00:49;;;;;;;1.95;1.10;;;11.10;99.90;;;;;;1876769;75;21042;-71
2021/03/28 09:03:15;;;;;;;12.60;1.30;;;11.60;99.90;;;;;;1879096;75;21160;-72
2021/03/28 09:05:41;;;;;;;2.83;0.98;;;12.10;99.90;;;;;;1877283;75;21074;-75
2021/03/28 09:08:07;;;;;;;12.78;1.30;;;12.70;99.90;;;;;;1863248;76;21159;-73
2021/03/28 09:10:34;;;;;;;7.50;1.07;;;12.60;99.90;;;;;;1846145;76;21172;-74
2021/03/28 09:13:01;;;;;;;5.62;1.65;;;13.10;99.90;;;;;;1844050;75;21100;-74
2021/03/28 09:15:27;;;;;;;3.67;1.22;;;13.70;99.90;;;;;;1878909;75;21093;-74
2021/03/28 09:17:53;;;;;;;2.67;0.93;;;13.70;99.90;;;;;;1878736;75;21111;-74
2021/03/28 09:20:19;;;;;;;4.53;1.02;;;13.70;99.90;;;;;;1877937;75;21081;-74
2021/03/28 09:22:45;;;;;;;2.75;1.05;;;13.40;99.90;;;;;;1878338;75;21073;-75
2021/03/28 09:25:11;;;;;;;4.55;1.12;;;13.30;99.90;;;;;;1877007;75;21077;-76
2021/03/28 09:27:37;;;;;;;3.92;1.30;;;13.20;99.90;;;;;;1877168;75;21069;-75
2021/03/28 09:30:04;;;;;;;2.67;1.07;;;13.40;99.90;;;;;;1878102;74;21559;-76
2021/03/28 09:32:30;;;;;;;3.67;1.00;;;14.30;99.90;;;;;;1877202;75;21459;-74
2021/03/28 09:34:56;;;;;;;2.58;0.70;;;14.10;99.90;;;;;;1878729;75;21242;-75
2021/03/28 09:37:22;;;;;;;2.30;1.15;;;13.60;99.90;;;;;;1881889;75;21074;-76
2021/03/28 09:39:48;;;;;;;1.80;0.78;;;13.40;99.90;;;;;;1877544;75;21074;-71
2021/03/28 09:42:14;;;;;;;5.50;1.67;;;13.60;99.90;;;;;;1872385;75;21034;-76
2021/03/28 09:44:41;;;;;;;2.12;0.50;;;14.00;99.90;;;;;;1878217;75;21077;-74
2021/03/28 09:47:07;;;;;;;1.40;0.50;;;14.70;99.90;;;;;;1876598;75;21081;-75
2021/03/28 09:49:33;;;;;;;7.67;0.90;;;14.60;99.50;;;;;;1877266;75;21082;-74
2021/03/28 09:51:59;;;;;;;1.30;0.57;;;13.90;99.50;;;;;;1877208;75;21073;-74
2021/03/28 09:54:25;;;;;;;2.83;0.65;;;14.30;98.30;;;;;;1877354;75;21142;-74
2021/03/28 09:56:51;;;;;;;1.30;0.70;;;14.20;96.60;;;;;;1877923;75;21081;-73
2021/03/28 09:59:17;;;;;;;8.00;0.68;;;14.10;95.40;;;;;;1879143;75;21078;-74
2021/03/28 10:01:44;;;;;;;0.72;0.60;;;13.90;94.30;;;;;;1878786;75;21139;-75
2021/03/28 10:04:10;;;;;;;1.17;0.68;;;14.10;93.40;;;;;;1878889;75;21152;-74
2021/03/28 10:06:37;;;;;;;5.72;1.00;;;14.30;93.50;;;;;;1877386;75;21070;-74
2021/03/28 10:09:03;;;;;;;3.30;0.78;;;14.30;92.80;;;;;;1877608;75;21564;-74
2021/03/28 10:11:29;;;;;;;1.45;0.47;;;14.40;91.30;;;;;;1877932;75;21571;-74
2021/03/28 10:13:56;;;;;;;2.45;0.70;;;14.70;91.00;;;;;;1878206;75;21502;-74
2021/03/28 10:16:22;;;;;;;2.90;0.90;;;15.00;87.70;;;;;;1876647;75;21521;-73
2021/03/28 10:18:48;;;;;;;1.98;1.00;;;14.80;87.60;;;;;;1878518;75;21143;-73
2021/03/28 10:21:14;;;;;;;1.32;0.60;;;14.60;89.10;;;;;;1877244;75;21127;-74
2021/03/28 10:23:40;;;;;;;3.25;0.80;;;14.70;88.00;;;;;;1877179;75;21124;-73
2021/03/28 10:26:06;;;;;;;1.90;0.47;;;14.90;88.10;;;;;;1877614;75;21152;-74
2021/03/28 10:28:32;;;;;;;1.85;0.68;;;14.80;89.60;;;;;;1878169;75;21082;-74
2021/03/28 10:30:58;;;;;;;1.25;0.80;;;14.70;88.70;;;;;;1877331;75;21140;-74
2021/03/28 10:33:25;;;;;;;3.42;0.68;;;14.80;89.70;;;;;;1877260;75;21074;-74
2021/03/28 10:35:54;;;;;;;1.35;0.65;;;15.50;89.00;;;;;;1877067;75;21080;-74
2021/03/28 10:38:20;;;;;;;0.60;0.50;;;15.80;85.00;;;;;;1877040;75;21544;-75
2021/03/28 10:40:46;;;;;;;1.37;0.62;;;15.80;83.40;;;;;;1876977;75;21560;-74
2021/03/28 10:43:12;;;;;;;2.90;0.80;;;15.00;86.60;;;;;;1877333;75;21509;-73
2021/03/28 10:45:38;;;;;;;2.72;0.57;;;15.40;82.10;;;;;;1879474;75;21089;-74
2021/03/28 10:48:05;;;;;;;2.33;0.68;;;15.90;81.90;;;;;;1879975;75;21081;-74
2021/03/28 10:50:31;;;;;;;5.03;0.72;;;15.50;80.30;;;;;;1877682;75;21139;-74
2021/03/28 10:52:57;;;;;;;3.25;0.50;;;15.40;80.70;;;;;;1876481;75;21148;-74
2021/03/28 10:55:23;;;;;;;1.80;0.68;;;16.00;79.30;;;;;;1852187;75;21121;-74
2021/03/28 10:57:49;;;;;;;2.85;0.95;;;15.50;78.80;;;;;;1878020;75;21155;-74
2021/03/28 11:00:15;;;;;;;1.45;0.60;;;15.20;80.90;;;;;;1876664;75;21151;-74
2021/03/28 11:02:41;;;;;;;1.57;0.60;;;15.10;77.50;;;;;;1877569;75;21073;-74
2021/03/28 11:05:08;;;;;;;1.65;0.70;;;14.70;79.50;;;;;;1876664;75;21082;-74
2021/03/28 11:07:34;;;;;;;0.75;0.50;;;14.50;79.10;;;;;;1877724;75;21194;-74
2021/03/28 11:10:00;;;;;;;2.00;0.55;;;14.80;79.30;;;;;;1877585;75;21080;-74
2021/03/28 11:12:26;;;;;;;1.42;0.40;;;15.60;76.50;;;;;;1877731;75;21128;-74
2021/03/28 11:14:52;;;;;;;1.12;0.70;;;15.90;73.50;;;;;;1877144;75;21085;-74
2021/03/28 11:17:18;;;;;;;2.25;0.47;;;15.90;72.10;;;;;;1877202;75;21073;-74
2021/03/28 11:19:44;;;;;;;1.17;0.75;;;15.80;73.00;;;;;;1876852;75;21078;-74
2021/03/28 11:22:10;;;;;;;2.92;0.65;;;15.50;72.30;;;;;;1876854;75;21192;-74
2021/03/28 11:24:37;;;;;;;2.42;0.60;;;15.60;73.60;;;;;;1876764;75;21131;-74
2021/03/28 11:27:03;;;;;;;3.47;0.57;;;16.50;72.50;;;;;;1878926;75;21140;-74
2021/03/28 11:29:29;;;;;;;1.98;0.62;;;16.80;69.50;;;;;;1877884;75;21074;-73
2021/03/28 11:31:55;;;;;;;1.90;0.70;;;16.60;67.70;;;;;;1878050;75;21073;-75
2021/03/28 11:34:21;;;;;;;2.45;0.47;;;16.30;68.10;;;;;;1877433;75;21160;-74
2021/03/28 11:36:47;;;;;;;0.60;0.55;;;16.20;70.20;;;;;;1877873;75;21517;-74
2021/03/28 11:39:13;;;;;;;2.15;0.68;;;16.60;68.80;;;;;;1877395;75;21513;-74
2021/03/28 11:41:40;;;;;;;2.10;0.78;;;16.60;67.10;;;;;;1877313;75;21459;-74
2021/03/28 11:44:06;;;;;;;4.25;0.42;;;16.80;66.80;;;;;;1877252;75;21046;-75
2021/03/28 11:46:32;;;;;;;3.45;0.90;;;16.80;68.40;;;;;;1878614;75;21073;-75
2021/03/28 11:48:58;;;;;;;9.18;0.70;;;16.50;64.50;;;;;;1878228;75;21078;-75
2021/03/28 11:51:25;;;;;;;3.47;0.42;;;17.00;64.00;;;;;;1877288;75;21509;-74
2021/03/28 11:53:51;;;;;;;3.27;0.65;;;17.70;64.00;;;;;;1878682;75;21525;-75
2021/03/28 11:56:17;;;;;;;4.00;1.20;;;18.50;61.10;;;;;;1877212;75;21509;-74
2021/03/28 11:58:43;;;;;;;1.65;0.70;;;18.20;60.30;;;;;;1879362;75;21474;-76
2021/03/28 12:01:09;;;;;;;8.45;0.68;;;17.70;59.50;;;;;;1877033;75;21579;-75
2021/03/28 12:03:35;;;;;;;1.75;0.40;;;18.00;61.00;;;;;;1878137;75;21135;-75
2021/03/28 12:06:01;;;;;;;2.42;0.68;;;18.60;59.50;;;;;;1877775;75;21054;-74
2021/03/28 12:08:27;;;;;;;2.33;0.65;;;18.80;58.10;;;;;;1877359;75;21132;-74
2021/03/28 12:10:54;;;;;;;1.55;0.78;;;19.10;57.80;;;;;;1877062;75;21120;-74
2021/03/28 12:13:20;;;;;;;4.67;1.00;;;18.60;58.50;;;;;;1877205;75;21156;-75
2021/03/28 12:15:46;;;;;;;3.02;0.65;;;18.00;59.80;;;;;;1876841;75;21046;-73
2021/03/28 12:18:12;;;;;;;0.68;0.28;;;17.30;62.90;;;;;;1877180;75;21435;-73
2021/03/28 12:20:38;;;;;;;4.00;0.70;;;17.60;62.90;;;;;;1877216;75;21501;-76
2021/03/28 12:23:04;;;;;;;1.10;0.55;;;17.80;61.60;;;;;;1879234;75;21568;-75
2021/03/28 12:25:36;;;;;;;1.67;0.60;;;17.90;60.70;;;;;;1877197;75;21081;-75
2021/03/28 12:28:02;;;;;;;2.87;0.60;;;17.90;60.70;;;;;;1881041;74;21430;-75
2021/03/28 12:30:29;;;;;;;1.10;0.50;;;18.30;61.10;;;;;;1877684;75;21117;-75
2021/03/28 12:32:55;;;;;;;3.95;0.90;;;18.60;59.20;;;;;;1877235;75;21139;-75
2021/03/28 12:35:21;;;;;;;5.25;0.88;;;18.60;60.00;;;;;;1876732;75;21077;-76
2021/03/28 12:37:47;;;;;;;9.60;0.50;;;19.60;59.20;;;;;;1877669;75;21152;-75
2021/03/28 12:40:13;;;;;;;0.98;0.70;;;20.50;57.20;;;;;;1876674;75;21042;-75
2021/03/28 12:42:40;;;;;;;3.50;0.75;;;19.20;58.10;;;;;;1878904;75;21081;-75
2021/03/28 12:45:06;;;;;;;1.37;0.68;;;19.20;58.10;;;;;;1879835;75;21085;-76
2021/03/28 12:47:34;;;;;;;3.08;0.80;;;19.70;57.90;;;;;;1878868;75;21077;-75